Elgin, OH

9:42 AM EDT on October 17, 2019 (GMT -0400)
Profit & Son’s Farms Inc. | | Change Station
Active Advisory: Frost Advisory

Elev 738 ft 40.80 °N, 84.54 °W | Updated 7 seconds ago

Partly Cloudy
Partly Cloudy
44.8 °F
Feels Like 41 °F
N
6.5
Wind Variable Wind from WNW
Gusts 6.9 mph

Today
High -- | Low -- °F
--% Chance of Precip.
Yesterday
High -- | Low -- °F
Precip. -- in
Pressure 29.95 in
Visibility 10.0 miles
Clouds Few 2800 ft
Windchill 41 °F
Dew Point 42 °F
Humidity 90%
Rainfall 0.00 in
Snow Depth Not available.
7:51 AM 6:54 PM
Waning Gibbous, 87% visible
SPECI KAOH 171324Z AUTO 30008KT 10SM FEW028 07/04 A2995 RMK AO2 T00720039 $
Pressure 29.95 in
Visibility 10.0 miles
Clouds Few 2800 ft
Windchill 41 °F
Dew Point 42 °F
Humidity 90%
Rainfall 0.00 in
Snow Depth Not available.
7:51 AM 6:54 PM
Waning Gibbous, 87% visible
SPECI KAOH 171324Z AUTO 30008KT 10SM FEW028 07/04 A2995 RMK AO2 T00720039 $

Get Your Daily Forecast Email!

Thanks for signing up!

Be on the lookout for a verification email in your inbox.

You'll start receiving severe weather alerts in your inbox..

×

10-Day Weather Forecast

Almanac

Astronomy

Oct. 17, 2019 Rise Set
Actual Time
Civil Twilight
Nautical Twilight
Astronomical Twilight
Moon
Length of Visible Light
Length of Day
Tomorrow will be .
, % of the Moon is Illuminated

Today's Extremes

State Highs State Lows

Community

WunderPhotos

Category 6

Welcome to Category 6. This is the collective home for Weather Underground's featured writeups by Dr. Jeff Masters (right), Bob Henson (left), Chris Burt, and other regular contributors.

Nearby

Air Quality

  Air Quality AQ Index Pollutant
Not available.

Snow Depth

Station Depth Elevation

Earthquake Activity

City Distance Mag. Time & Date
Minimum magnitude displayed is 2.5.

Coastal Water Temperatures

Place Temperature

Stations

Nearby Weather Stations

Station Location Temp. Windchill Dew Point Humidity Wind Precip. Elev Updated Type
                   

Watches & Warnings

Frost Advisory
Issued: 2:43 AM CDT Oct. 17, 2019 – National Weather Service

... Frost advisory in effect from 2 am EDT /1 am CDT/ to 9 am EDT
/8 am CDT/ Friday...

* what... low temperatures of 30 to 35 degrees away from Lake
Michigan. Expect widespread frost and possibly a light freeze in
localized colder drainage areas late tonight into Friday
morning.

* Where... portions of northern Indiana, southwest Michigan and
Northwest Ohio.

* When... from 2 am EDT /1 am CDT/ to 9 am EDT /8 am CDT/ Friday.

* Impacts... frost could kill sensitive outdoor vegetation if left
uncovered. Late season crops not harvested may be damaged or
killed.

* Additional details... consider taking in or covering tender
plants.

Precautionary/preparedness actions...

Take steps now to protect tender plants from the cold.